sensor_id;sensor_type;location;lat;lon;timestamp;P1;durP1;ratioP1;P2;durP2;ratioP2
55172;SDS011;41061;52.822;6.860;2024-01-06T00:01:54;20.33;;;12.35;;
55172;SDS011;41061;52.822;6.860;2024-01-06T00:04:20;20.85;;;12.90;;
55172;SDS011;41061;52.822;6.860;2024-01-06T00:06:46;20.45;;;13.20;;
55172;SDS011;41061;52.822;6.860;2024-01-06T00:09:12;17.75;;;12.00;;
55172;SDS011;41061;52.822;6.860;2024-01-06T00:11:38;18.45;;;12.73;;
55172;SDS011;41061;52.822;6.860;2024-01-06T00:14:04;22.67;;;13.80;;
55172;SDS011;41061;52.822;6.860;2024-01-06T00:16:30;22.27;;;14.27;;
55172;SDS011;41061;52.822;6.860;2024-01-06T00:18:57;22.20;;;13.73;;
55172;SDS011;41061;52.822;6.860;2024-01-06T00:21:24;21.77;;;14.73;;
55172;SDS011;41061;52.822;6.860;2024-01-06T00:23:51;23.17;;;14.10;;
55172;SDS011;41061;52.822;6.860;2024-01-06T00:26:17;24.05;;;15.27;;
55172;SDS011;41061;52.822;6.860;2024-01-06T00:28:43;24.65;;;16.20;;
55172;SDS011;41061;52.822;6.860;2024-01-06T00:31:09;25.52;;;15.38;;
55172;SDS011;41061;52.822;6.860;2024-01-06T00:33:35;27.17;;;16.55;;
55172;SDS011;41061;52.822;6.860;2024-01-06T00:36:01;28.15;;;17.10;;
55172;SDS011;41061;52.822;6.860;2024-01-06T00:38:28;28.38;;;16.23;;
55172;SDS011;41061;52.822;6.860;2024-01-06T00:40:54;25.10;;;15.90;;
55172;SDS011;41061;52.822;6.860;2024-01-06T00:43:21;28.08;;;17.77;;
55172;SDS011;41061;52.822;6.860;2024-01-06T00:45:47;29.88;;;17.42;;
55172;SDS011;41061;52.822;6.860;2024-01-06T00:48:13;30.35;;;17.77;;
55172;SDS011;41061;52.822;6.860;2024-01-06T00:50:39;29.60;;;18.17;;
55172;SDS011;41061;52.822;6.860;2024-01-06T00:53:05;32.47;;;19.95;;
55172;SDS011;41061;52.822;6.860;2024-01-06T00:55:31;32.42;;;18.55;;
55172;SDS011;41061;52.822;6.860;2024-01-06T00:57:57;31.77;;;18.70;;
55172;SDS011;41061;52.822;6.860;2024-01-06T01:00:23;34.80;;;19.33;;
55172;SDS011;41061;52.822;6.860;2024-01-06T01:02:52;33.20;;;20.25;;
55172;SDS011;41061;52.822;6.860;2024-01-06T01:05:18;30.50;;;18.88;;
55172;SDS011;41061;52.822;6.860;2024-01-06T01:07:44;29.50;;;17.92;;
55172;SDS011;41061;52.822;6.860;2024-01-06T01:10:10;34.08;;;19.80;;
55172;SDS011;41061;52.822;6.860;2024-01-06T01:12:36;34.60;;;20.73;;
55172;SDS011;41061;52.822;6.860;2024-01-06T01:15:03;38.05;;;21.20;;
55172;SDS011;41061;52.822;6.860;2024-01-06T01:17:29;36.30;;;20.77;;
55172;SDS011;41061;52.822;6.860;2024-01-06T01:19:55;33.90;;;20.23;;
55172;SDS011;41061;52.822;6.860;2024-01-06T01:22:21;34.53;;;19.95;;
55172;SDS011;41061;52.822;6.860;2024-01-06T01:24:47;36.38;;;21.13;;
55172;SDS011;41061;52.822;6.860;2024-01-06T01:27:13;37.25;;;21.25;;
55172;SDS011;41061;52.822;6.860;2024-01-06T01:29:39;38.95;;;21.60;;
55172;SDS011;41061;52.822;6.860;2024-01-06T01:32:05;36.40;;;20.58;;
55172;SDS011;41061;52.822;6.860;2024-01-06T01:34:31;34.08;;;18.98;;
55172;SDS011;41061;52.822;6.860;2024-01-06T01:36:57;37.08;;;21.13;;
55172;SDS011;41061;52.822;6.860;2024-01-06T01:39:23;39.67;;;21.85;;
55172;SDS011;41061;52.822;6.860;2024-01-06T01:41:49;34.30;;;19.23;;
55172;SDS011;41061;52.822;6.860;2024-01-06T01:44:15;35.35;;;20.08;;
55172;SDS011;41061;52.822;6.860;2024-01-06T01:46:41;35.10;;;20.60;;
55172;SDS011;41061;52.822;6.860;2024-01-06T01:49:08;34.55;;;19.30;;
55172;SDS011;41061;52.822;6.860;2024-01-06T01:51:34;31.52;;;19.00;;
55172;SDS011;41061;52.822;6.860;2024-01-06T01:54:01;32.67;;;16.98;;
55172;SDS011;41061;52.822;6.860;2024-01-06T01:56:27;31.65;;;18.00;;
55172;SDS011;41061;52.822;6.860;2024-01-06T01:58:54;30.85;;;18.95;;
55172;SDS011;41061;52.822;6.860;2024-01-06T02:01:21;34.50;;;19.33;;
55172;SDS011;41061;52.822;6.860;2024-01-06T02:03:47;32.95;;;19.27;;
55172;SDS011;41061;52.822;6.860;2024-01-06T02:06:13;31.90;;;18.88;;
55172;SDS011;41061;52.822;6.860;2024-01-06T02:08:39;33.33;;;18.63;;
55172;SDS011;41061;52.822;6.860;2024-01-06T02:11:05;33.50;;;19.20;;
55172;SDS011;41061;52.822;6.860;2024-01-06T02:13:34;30.25;;;17.13;;
55172;SDS011;41061;52.822;6.860;2024-01-06T02:16:02;29.52;;;17.58;;
55172;SDS011;41061;52.822;6.860;2024-01-06T02:18:28;31.98;;;18.80;;
55172;SDS011;41061;52.822;6.860;2024-01-06T02:20:55;32.50;;;18.45;;
55172;SDS011;41061;52.822;6.860;2024-01-06T02:23:22;31.65;;;18.80;;
55172;SDS011;41061;52.822;6.860;2024-01-06T02:25:48;33.13;;;18.70;;
55172;SDS011;41061;52.822;6.860;2024-01-06T02:28:14;30.58;;;18.67;;
55172;SDS011;41061;52.822;6.860;2024-01-06T02:30:41;30.25;;;17.30;;
55172;SDS011;41061;52.822;6.860;2024-01-06T02:33:07;28.85;;;18.13;;
55172;SDS011;41061;52.822;6.860;2024-01-06T02:35:33;32.38;;;18.40;;
55172;SDS011;41061;52.822;6.860;2024-01-06T02:37:59;35.50;;;20.23;;
55172;SDS011;41061;52.822;6.860;2024-01-06T02:40:25;32.85;;;19.73;;
55172;SDS011;41061;52.822;6.860;2024-01-06T02:42:52;33.20;;;19.35;;
55172;SDS011;41061;52.822;6.860;2024-01-06T02:45:18;31.25;;;17.80;;
55172;SDS011;41061;52.822;6.860;2024-01-06T02:47:44;32.00;;;18.90;;
55172;SDS011;41061;52.822;6.860;2024-01-06T02:50:10;39.17;;;21.35;;
55172;SDS011;41061;52.822;6.860;2024-01-06T02:52:36;39.00;;;21.05;;
55172;SDS011;41061;52.822;6.860;2024-01-06T02:55:02;36.00;;;20.48;;
55172;SDS011;41061;52.822;6.860;2024-01-06T02:57:32;41.85;;;23.00;;
55172;SDS011;41061;52.822;6.860;2024-01-06T02:59:58;37.35;;;20.13;;
55172;SDS011;41061;52.822;6.860;2024-01-06T03:02:24;34.78;;;19.77;;
55172;SDS011;41061;52.822;6.860;2024-01-06T03:04:50;34.90;;;19.58;;
55172;SDS011;41061;52.822;6.860;2024-01-06T03:07:16;40.53;;;21.75;;
55172;SDS011;41061;52.822;6.860;2024-01-06T03:09:42;42.97;;;20.88;;
55172;SDS011;41061;52.822;6.860;2024-01-06T03:12:08;36.92;;;18.65;;
55172;SDS011;41061;52.822;6.860;2024-01-06T03:14:35;27.02;;;15.57;;
55172;SDS011;41061;52.822;6.860;2024-01-06T03:17:01;34.85;;;18.65;;
55172;SDS011;41061;52.822;6.860;2024-01-06T03:19:30;27.73;;;14.80;;
55172;SDS011;41061;52.822;6.860;2024-01-06T03:21:56;35.97;;;18.58;;
55172;SDS011;41061;52.822;6.860;2024-01-06T03:24:23;37.67;;;18.77;;
55172;SDS011;41061;52.822;6.860;2024-01-06T03:26:49;36.55;;;19.20;;
55172;SDS011;41061;52.822;6.860;2024-01-06T03:29:15;36.63;;;16.75;;
55172;SDS011;41061;52.822;6.860;2024-01-06T03:31:42;32.42;;;17.25;;
55172;SDS011;41061;52.822;6.860;2024-01-06T03:34:08;30.83;;;17.73;;
55172;SDS011;41061;52.822;6.860;2024-01-06T03:36:36;34.17;;;17.63;;
55172;SDS011;41061;52.822;6.860;2024-01-06T03:39:02;33.67;;;19.35;;
55172;SDS011;41061;52.822;6.860;2024-01-06T03:41:28;30.85;;;17.73;;
55172;SDS011;41061;52.822;6.860;2024-01-06T03:43:54;46.33;;;19.95;;
55172;SDS011;41061;52.822;6.860;2024-01-06T03:46:20;36.38;;;17.42;;
55172;SDS011;41061;52.822;6.860;2024-01-06T03:48:46;35.50;;;18.15;;
55172;SDS011;41061;52.822;6.860;2024-01-06T03:51:12;35.35;;;19.27;;
55172;SDS011;41061;52.822;6.860;2024-01-06T03:53:38;39.67;;;19.65;;
55172;SDS011;41061;52.822;6.860;2024-01-06T03:56:05;39.30;;;19.23;;
55172;SDS011;41061;52.822;6.860;2024-01-06T03:58:31;41.50;;;21.15;;
55172;SDS011;41061;52.822;6.860;2024-01-06T04:00:57;38.97;;;17.52;;
55172;SDS011;41061;52.822;6.860;2024-01-06T04:03:24;39.80;;;17.55;;
55172;SDS011;41061;52.822;6.860;2024-01-06T04:05:50;32.85;;;17.23;;
55172;SDS011;41061;52.822;6.860;2024-01-06T04:08:17;31.60;;;16.40;;
55172;SDS011;41061;52.822;6.860;2024-01-06T04:10:43;29.23;;;15.75;;
55172;SDS011;41061;52.822;6.860;2024-01-06T04:13:10;29.85;;;16.13;;
55172;SDS011;41061;52.822;6.860;2024-01-06T04:15:36;27.15;;;14.93;;
55172;SDS011;41061;52.822;6.860;2024-01-06T04:18:02;24.67;;;14.38;;
55172;SDS011;41061;52.822;6.860;2024-01-06T04:20:29;29.00;;;15.77;;
55172;SDS011;41061;52.822;6.860;2024-01-06T04:22:55;34.53;;;17.55;;
55172;SDS011;41061;52.822;6.860;2024-01-06T04:25:21;36.10;;;18.23;;
55172;SDS011;41061;52.822;6.860;2024-01-06T04:27:47;32.45;;;17.15;;
55172;SDS011;41061;52.822;6.860;2024-01-06T04:30:14;32.33;;;17.45;;
55172;SDS011;41061;52.822;6.860;2024-01-06T04:32:41;32.47;;;18.38;;
55172;SDS011;41061;52.822;6.860;2024-01-06T04:35:07;32.63;;;17.88;;
55172;SDS011;41061;52.822;6.860;2024-01-06T04:37:33;32.47;;;16.40;;
55172;SDS011;41061;52.822;6.860;2024-01-06T04:39:59;32.67;;;17.55;;
55172;SDS011;41061;52.822;6.860;2024-01-06T04:42:26;32.30;;;17.33;;
55172;SDS011;41061;52.822;6.860;2024-01-06T04:44:52;34.63;;;18.85;;
55172;SDS011;41061;52.822;6.860;2024-01-06T04:47:18;41.90;;;19.20;;
55172;SDS011;41061;52.822;6.860;2024-01-06T04:49:44;38.28;;;18.80;;
55172;SDS011;41061;52.822;6.860;2024-01-06T04:52:11;33.65;;;17.20;;
55172;SDS011;41061;52.822;6.860;2024-01-06T04:54:37;32.63;;;17.48;;
55172;SDS011;41061;52.822;6.860;2024-01-06T04:57:03;28.02;;;16.58;;
55172;SDS011;41061;52.822;6.860;2024-01-06T04:59:29;33.78;;;17.42;;
55172;SDS011;41061;52.822;6.860;2024-01-06T05:01:55;32.08;;;16.75;;
55172;SDS011;41061;52.822;6.860;2024-01-06T05:04:22;34.55;;;17.13;;
55172;SDS011;41061;52.822;6.860;2024-01-06T05:06:48;30.33;;;17.02;;
55172;SDS011;41061;52.822;6.860;2024-01-06T05:09:14;30.55;;;17.08;;
55172;SDS011;41061;52.822;6.860;2024-01-06T05:11:40;32.38;;;16.83;;
55172;SDS011;41061;52.822;6.860;2024-01-06T05:14:08;26.70;;;13.88;;
55172;SDS011;41061;52.822;6.860;2024-01-06T05:16:34;24.77;;;14.90;;
55172;SDS011;41061;52.822;6.860;2024-01-06T05:19:00;29.67;;;16.05;;
55172;SDS011;41061;52.822;6.860;2024-01-06T05:21:25;28.55;;;14.60;;
55172;SDS011;41061;52.822;6.860;2024-01-06T05:23:52;30.02;;;15.68;;
55172;SDS011;41061;52.822;6.860;2024-01-06T05:26:17;26.25;;;14.82;;
55172;SDS011;41061;52.822;6.860;2024-01-06T05:28:43;34.03;;;16.55;;
55172;SDS011;41061;52.822;6.860;2024-01-06T05:31:09;35.25;;;16.75;;
55172;SDS011;41061;52.822;6.860;2024-01-06T05:33:34;33.22;;;16.92;;
55172;SDS011;41061;52.822;6.860;2024-01-06T05:36:00;37.40;;;17.65;;
55172;SDS011;41061;52.822;6.860;2024-01-06T05:38:26;34.35;;;17.10;;
55172;SDS011;41061;52.822;6.860;2024-01-06T05:40:51;40.45;;;17.73;;
55172;SDS011;41061;52.822;6.860;2024-01-06T05:43:17;38.67;;;18.27;;
55172;SDS011;41061;52.822;6.860;2024-01-06T05:45:42;34.58;;;16.45;;
55172;SDS011;41061;52.822;6.860;2024-01-06T05:48:09;34.67;;;16.50;;
55172;SDS011;41061;52.822;6.860;2024-01-06T05:50:35;33.60;;;16.33;;
55172;SDS011;41061;52.822;6.860;2024-01-06T05:53:01;35.72;;;17.38;;
55172;SDS011;41061;52.822;6.860;2024-01-06T05:55:27;36.50;;;17.63;;
55172;SDS011;41061;52.822;6.860;2024-01-06T05:57:54;39.72;;;16.92;;
55172;SDS011;41061;52.822;6.860;2024-01-06T06:00:22;36.33;;;17.15;;
55172;SDS011;41061;52.822;6.860;2024-01-06T06:02:48;32.97;;;15.77;;
55172;SDS011;41061;52.822;6.860;2024-01-06T06:05:14;31.00;;;15.95;;
55172;SDS011;41061;52.822;6.860;2024-01-06T06:07:42;35.83;;;15.88;;
55172;SDS011;41061;52.822;6.860;2024-01-06T06:10:08;35.90;;;17.27;;
55172;SDS011;41061;52.822;6.860;2024-01-06T06:12:35;34.30;;;16.40;;
55172;SDS011;41061;52.822;6.860;2024-01-06T06:15:01;38.35;;;17.45;;
55172;SDS011;41061;52.822;6.860;2024-01-06T06:17:31;42.70;;;18.08;;
55172;SDS011;41061;52.822;6.860;2024-01-06T06:19:57;39.03;;;17.02;;
55172;SDS011;41061;52.822;6.860;2024-01-06T06:22:24;35.55;;;17.63;;
55172;SDS011;41061;52.822;6.860;2024-01-06T06:24:51;38.63;;;16.98;;
55172;SDS011;41061;52.822;6.860;2024-01-06T06:27:17;38.08;;;16.63;;
55172;SDS011;41061;52.822;6.860;2024-01-06T06:29:43;36.90;;;16.33;;
55172;SDS011;41061;52.822;6.860;2024-01-06T06:32:09;32.10;;;15.18;;
55172;SDS011;41061;52.822;6.860;2024-01-06T06:34:34;35.30;;;15.63;;
55172;SDS011;41061;52.822;6.860;2024-01-06T06:37:00;37.13;;;16.95;;
55172;SDS011;41061;52.822;6.860;2024-01-06T06:39:26;36.08;;;16.05;;
55172;SDS011;41061;52.822;6.860;2024-01-06T06:41:52;38.75;;;16.42;;
55172;SDS011;41061;52.822;6.860;2024-01-06T06:44:18;38.42;;;16.48;;
55172;SDS011;41061;52.822;6.860;2024-01-06T06:46:44;29.77;;;15.10;;
55172;SDS011;41061;52.822;6.860;2024-01-06T06:49:09;33.90;;;16.55;;
55172;SDS011;41061;52.822;6.860;2024-01-06T06:51:35;31.70;;;17.90;;
55172;SDS011;41061;52.822;6.860;2024-01-06T06:54:00;37.83;;;16.13;;
55172;SDS011;41061;52.822;6.860;2024-01-06T06:56:26;34.75;;;16.27;;
55172;SDS011;41061;52.822;6.860;2024-01-06T06:58:52;31.45;;;15.20;;
55172;SDS011;41061;52.822;6.860;2024-01-06T07:01:18;36.80;;;16.80;;
55172;SDS011;41061;52.822;6.860;2024-01-06T07:03:43;34.33;;;16.75;;
55172;SDS011;41061;52.822;6.860;2024-01-06T07:06:11;38.42;;;18.23;;
55172;SDS011;41061;52.822;6.860;2024-01-06T07:08:38;32.88;;;16.48;;
55172;SDS011;41061;52.822;6.860;2024-01-06T07:11:04;34.95;;;16.90;;
55172;SDS011;41061;52.822;6.860;2024-01-06T07:13:33;31.27;;;15.93;;
55172;SDS011;41061;52.822;6.860;2024-01-06T07:15:58;30.88;;;15.57;;
55172;SDS011;41061;52.822;6.860;2024-01-06T07:18:24;36.67;;;17.70;;
55172;SDS011;41061;52.822;6.860;2024-01-06T07:20:51;33.10;;;17.02;;
55172;SDS011;41061;52.822;6.860;2024-01-06T07:23:16;39.28;;;18.60;;
55172;SDS011;41061;52.822;6.860;2024-01-06T07:25:45;35.03;;;17.90;;
55172;SDS011;41061;52.822;6.860;2024-01-06T07:28:10;33.75;;;16.65;;
55172;SDS011;41061;52.822;6.860;2024-01-06T07:30:36;30.88;;;16.88;;
55172;SDS011;41061;52.822;6.860;2024-01-06T07:33:02;34.17;;;18.48;;
55172;SDS011;41061;52.822;6.860;2024-01-06T07:35:28;29.95;;;16.83;;
55172;SDS011;41061;52.822;6.860;2024-01-06T07:37:54;32.40;;;17.48;;
55172;SDS011;41061;52.822;6.860;2024-01-06T07:40:19;33.38;;;17.33;;
55172;SDS011;41061;52.822;6.860;2024-01-06T07:42:45;28.90;;;16.48;;
55172;SDS011;41061;52.822;6.860;2024-01-06T07:45:10;29.60;;;16.23;;
55172;SDS011;41061;52.822;6.860;2024-01-06T07:47:38;31.95;;;18.50;;
55172;SDS011;41061;52.822;6.860;2024-01-06T07:50:04;28.88;;;16.88;;
55172;SDS011;41061;52.822;6.860;2024-01-06T07:52:30;32.88;;;18.90;;
55172;SDS011;41061;52.822;6.860;2024-01-06T07:54:56;28.65;;;16.10;;
55172;SDS011;41061;52.822;6.860;2024-01-06T07:57:21;30.33;;;17.27;;
55172;SDS011;41061;52.822;6.860;2024-01-06T07:59:47;27.63;;;16.38;;
55172;SDS011;41061;52.822;6.860;2024-01-06T08:02:13;26.92;;;16.38;;
55172;SDS011;41061;52.822;6.860;2024-01-06T08:04:38;29.25;;;17.05;;
55172;SDS011;41061;52.822;6.860;2024-01-06T08:07:04;29.63;;;17.48;;
55172;SDS011;41061;52.822;6.860;2024-01-06T08:09:30;30.35;;;17.88;;
55172;SDS011;41061;52.822;6.860;2024-01-06T08:11:56;29.75;;;17.33;;
55172;SDS011;41061;52.822;6.860;2024-01-06T08:14:21;30.20;;;18.13;;
55172;SDS011;41061;52.822;6.860;2024-01-06T08:16:47;28.33;;;16.70;;
55172;SDS011;41061;52.822;6.860;2024-01-06T08:19:16;27.40;;;16.10;;
55172;SDS011;41061;52.822;6.860;2024-01-06T08:21:42;27.27;;;16.48;;
55172;SDS011;41061;52.822;6.860;2024-01-06T08:24:07;26.65;;;16.38;;
55172;SDS011;41061;52.822;6.860;2024-01-06T08:26:33;25.20;;;16.30;;
55172;SDS011;41061;52.822;6.860;2024-01-06T08:28:59;25.90;;;15.90;;
55172;SDS011;41061;52.822;6.860;2024-01-06T08:31:24;26.50;;;15.95;;
55172;SDS011;41061;52.822;6.860;2024-01-06T08:33:50;25.25;;;15.60;;
55172;SDS011;41061;52.822;6.860;2024-01-06T08:36:16;26.67;;;16.63;;
55172;SDS011;41061;52.822;6.860;2024-01-06T08:38:42;24.48;;;16.23;;
55172;SDS011;41061;52.822;6.860;2024-01-06T08:41:08;28.73;;;16.55;;
55172;SDS011;41061;52.822;6.860;2024-01-06T08:43:33;24.33;;;15.38;;
55172;SDS011;41061;52.822;6.860;2024-01-06T08:45:59;30.10;;;17.25;;
55172;SDS011;41061;52.822;6.860;2024-01-06T08:48:25;27.45;;;15.38;;
55172;SDS011;41061;52.822;6.860;2024-01-06T08:50:51;25.42;;;15.13;;
55172;SDS011;41061;52.822;6.860;2024-01-06T08:53:17;25.67;;;15.25;;
55172;SDS011;41061;52.822;6.860;2024-01-06T08:55:42;23.23;;;15.43;;
55172;SDS011;41061;52.822;6.860;2024-01-06T08:58:08;21.48;;;14.32;;
55172;SDS011;41061;52.822;6.860;2024-01-06T09:00:34;25.08;;;15.45;;
55172;SDS011;41061;52.822;6.860;2024-01-06T09:02:59;21.17;;;14.48;;
55172;SDS011;41061;52.822;6.860;2024-01-06T09:05:28;23.08;;;15.43;;
55172;SDS011;41061;52.822;6.860;2024-01-06T09:07:54;22.83;;;15.60;;
55172;SDS011;41061;52.822;6.860;2024-01-06T09:10:19;24.95;;;14.52;;
55172;SDS011;41061;52.822;6.860;2024-01-06T09:12:45;25.33;;;15.63;;
55172;SDS011;41061;52.822;6.860;2024-01-06T09:15:11;23.05;;;14.98;;
55172;SDS011;41061;52.822;6.860;2024-01-06T09:17:36;25.92;;;15.32;;
55172;SDS011;41061;52.822;6.860;2024-01-06T09:20:02;23.90;;;14.25;;
55172;SDS011;41061;52.822;6.860;2024-01-06T09:22:31;22.15;;;15.05;;
55172;SDS011;41061;52.822;6.860;2024-01-06T09:24:57;20.33;;;12.68;;
55172;SDS011;41061;52.822;6.860;2024-01-06T09:27:24;23.17;;;14.85;;
55172;SDS011;41061;52.822;6.860;2024-01-06T09:29:50;22.00;;;15.13;;
55172;SDS011;41061;52.822;6.860;2024-01-06T09:32:16;20.52;;;14.18;;
55172;SDS011;41061;52.822;6.860;2024-01-06T09:34:41;18.80;;;12.80;;
55172;SDS011;41061;52.822;6.860;2024-01-06T09:37:07;20.80;;;14.32;;
55172;SDS011;41061;52.822;6.860;2024-01-06T09:39:33;22.77;;;15.27;;
55172;SDS011;41061;52.822;6.860;2024-01-06T09:41:59;22.42;;;15.15;;
55172;SDS011;41061;52.822;6.860;2024-01-06T09:44:25;22.35;;;14.80;;
55172;SDS011;41061;52.822;6.860;2024-01-06T09:46:51;20.90;;;14.48;;
55172;SDS011;41061;52.822;6.860;2024-01-06T09:49:22;24.88;;;15.13;;
55172;SDS011;41061;52.822;6.860;2024-01-06T09:51:51;22.02;;;15.02;;
55172;SDS011;41061;52.822;6.860;2024-01-06T09:54:22;21.98;;;14.43;;
55172;SDS011;41061;52.822;6.860;2024-01-06T09:56:51;21.35;;;15.00;;
55172;SDS011;41061;52.822;6.860;2024-01-06T09:59:17;21.13;;;14.65;;
55172;SDS011;41061;52.822;6.860;2024-01-06T10:01:45;22.25;;;14.82;;
55172;SDS011;41061;52.822;6.860;2024-01-06T10:04:11;20.20;;;14.50;;
55172;SDS011;41061;52.822;6.860;2024-01-06T10:06:44;20.08;;;13.80;;
55172;SDS011;41061;52.822;6.860;2024-01-06T10:09:10;20.00;;;13.60;;
55172;SDS011;41061;52.822;6.860;2024-01-06T10:11:40;20.00;;;12.07;;
55172;SDS011;41061;52.822;6.860;2024-01-06T10:14:06;18.27;;;12.45;;
55172;SDS011;41061;52.822;6.860;2024-01-06T10:16:33;19.65;;;13.25;;
55172;SDS011;41061;52.822;6.860;2024-01-06T10:19:00;20.95;;;14.35;;
55172;SDS011;41061;52.822;6.860;2024-01-06T10:21:26;19.20;;;13.65;;
55172;SDS011;41061;52.822;6.860;2024-01-06T10:23:53;20.05;;;13.93;;
55172;SDS011;41061;52.822;6.860;2024-01-06T10:26:20;20.17;;;14.45;;
55172;SDS011;41061;52.822;6.860;2024-01-06T10:28:47;22.13;;;14.90;;
55172;SDS011;41061;52.822;6.860;2024-01-06T10:31:14;20.13;;;14.77;;
55172;SDS011;41061;52.822;6.860;2024-01-06T10:33:40;21.77;;;13.38;;
55172;SDS011;41061;52.822;6.860;2024-01-06T10:36:06;20.27;;;14.13;;
55172;SDS011;41061;52.822;6.860;2024-01-06T10:38:33;21.02;;;12.32;;
55172;SDS011;41061;52.822;6.860;2024-01-06T10:41:00;20.27;;;13.02;;
55172;SDS011;41061;52.822;6.860;2024-01-06T10:43:33;21.23;;;14.05;;
55172;SDS011;41061;52.822;6.860;2024-01-06T10:46:04;16.90;;;11.40;;
55172;SDS011;41061;52.822;6.860;2024-01-06T10:48:34;21.13;;;13.98;;
55172;SDS011;41061;52.822;6.860;2024-01-06T10:51:00;21.33;;;13.40;;
55172;SDS011;41061;52.822;6.860;2024-01-06T10:53:36;21.02;;;13.75;;
55172;SDS011;41061;52.822;6.860;2024-01-06T10:56:04;15.65;;;10.55;;
55172;SDS011;41061;52.822;6.860;2024-01-06T10:58:32;18.58;;;12.02;;
55172;SDS011;41061;52.822;6.860;2024-01-06T11:00:58;17.40;;;12.30;;
55172;SDS011;41061;52.822;6.860;2024-01-06T11:03:26;20.35;;;13.90;;
55172;SDS011;41061;52.822;6.860;2024-01-06T11:05:54;19.70;;;13.45;;
55172;SDS011;41061;52.822;6.860;2024-01-06T11:08:19;21.13;;;14.20;;
55172;SDS011;41061;52.822;6.860;2024-01-06T11:10:47;16.38;;;12.25;;
55172;SDS011;41061;52.822;6.860;2024-01-06T11:13:13;18.83;;;13.40;;
55172;SDS011;41061;52.822;6.860;2024-01-06T11:15:49;19.85;;;13.00;;
55172;SDS011;41061;52.822;6.860;2024-01-06T11:18:37;21.27;;;14.68;;
55172;SDS011;41061;52.822;6.860;2024-01-06T11:21:20;23.00;;;13.65;;
55172;SDS011;41061;52.822;6.860;2024-01-06T11:26:56;19.80;;;13.55;;
55172;SDS011;41061;52.822;6.860;2024-01-06T11:29:22;22.27;;;14.18;;
55172;SDS011;41061;52.822;6.860;2024-01-06T11:34:50;21.13;;;14.52;;
55172;SDS011;41061;52.822;6.860;2024-01-06T11:37:19;18.88;;;12.57;;
55172;SDS011;41061;52.822;6.860;2024-01-06T11:39:49;26.08;;;16.40;;
55172;SDS011;41061;52.822;6.860;2024-01-06T11:42:15;20.98;;;14.40;;
55172;SDS011;41061;52.822;6.860;2024-01-06T11:44:44;23.23;;;14.80;;
55172;SDS011;41061;52.822;6.860;2024-01-06T11:47:14;25.27;;;15.48;;
55172;SDS011;41061;52.822;6.860;2024-01-06T11:49:43;23.75;;;15.13;;
55172;SDS011;41061;52.822;6.860;2024-01-06T11:52:11;23.75;;;16.10;;
55172;SDS011;41061;52.822;6.860;2024-01-06T11:54:37;24.45;;;15.82;;
55172;SDS011;41061;52.822;6.860;2024-01-06T11:57:04;18.38;;;11.95;;
55172;SDS011;41061;52.822;6.860;2024-01-06T11:59:32;23.77;;;15.75;;
55172;SDS011;41061;52.822;6.860;2024-01-06T12:01:58;21.33;;;14.32;;
55172;SDS011;41061;52.822;6.860;2024-01-06T12:04:24;22.55;;;13.43;;
55172;SDS011;41061;52.822;6.860;2024-01-06T12:06:52;19.83;;;12.63;;
55172;SDS011;41061;52.822;6.860;2024-01-06T12:09:19;20.88;;;12.95;;
55172;SDS011;41061;52.822;6.860;2024-01-06T12:11:45;22.75;;;13.90;;
55172;SDS011;41061;52.822;6.860;2024-01-06T12:14:12;17.90;;;10.98;;
55172;SDS011;41061;52.822;6.860;2024-01-06T12:16:38;23.42;;;15.95;;
55172;SDS011;41061;52.822;6.860;2024-01-06T12:19:03;21.88;;;14.95;;
55172;SDS011;41061;52.822;6.860;2024-01-06T12:21:29;21.95;;;14.75;;
55172;SDS011;41061;52.822;6.860;2024-01-06T12:24:17;20.27;;;12.50;;
55172;SDS011;41061;52.822;6.860;2024-01-06T12:26:47;20.98;;;13.63;;
55172;SDS011;41061;52.822;6.860;2024-01-06T12:29:13;20.70;;;12.38;;
55172;SDS011;41061;52.822;6.860;2024-01-06T12:31:39;19.25;;;13.10;;
55172;SDS011;41061;52.822;6.860;2024-01-06T12:34:06;22.05;;;13.93;;
55172;SDS011;41061;52.822;6.860;2024-01-06T12:36:35;20.67;;;13.05;;
55172;SDS011;41061;52.822;6.860;2024-01-06T12:39:04;18.58;;;13.38;;
55172;SDS011;41061;52.822;6.860;2024-01-06T12:41:30;23.75;;;15.20;;
55172;SDS011;41061;52.822;6.860;2024-01-06T12:44:03;20.80;;;13.85;;
55172;SDS011;41061;52.822;6.860;2024-01-06T12:46:29;22.70;;;15.50;;
55172;SDS011;41061;52.822;6.860;2024-01-06T12:48:55;20.17;;;13.73;;
55172;SDS011;41061;52.822;6.860;2024-01-06T12:51:20;22.80;;;15.50;;
55172;SDS011;41061;52.822;6.860;2024-01-06T12:53:46;20.73;;;14.23;;
55172;SDS011;41061;52.822;6.860;2024-01-06T12:56:12;20.38;;;15.40;;
55172;SDS011;41061;52.822;6.860;2024-01-06T12:58:39;25.27;;;16.63;;
55172;SDS011;41061;52.822;6.860;2024-01-06T13:01:06;25.48;;;16.55;;
55172;SDS011;41061;52.822;6.860;2024-01-06T13:03:32;24.02;;;15.88;;
55172;SDS011;41061;52.822;6.860;2024-01-06T13:05:58;24.63;;;16.95;;
55172;SDS011;41061;52.822;6.860;2024-01-06T13:08:25;20.63;;;14.70;;
55172;SDS011;41061;52.822;6.860;2024-01-06T13:10:52;24.50;;;15.27;;
55172;SDS011;41061;52.822;6.860;2024-01-06T13:13:21;18.40;;;12.20;;
55172;SDS011;41061;52.822;6.860;2024-01-06T13:15:46;23.67;;;16.40;;
55172;SDS011;41061;52.822;6.860;2024-01-06T13:18:12;23.35;;;17.15;;
55172;SDS011;41061;52.822;6.860;2024-01-06T13:20:38;23.92;;;15.88;;
55172;SDS011;41061;52.822;6.860;2024-01-06T13:23:07;24.48;;;16.27;;
55172;SDS011;41061;52.822;6.860;2024-01-06T13:25:35;22.17;;;14.10;;
55172;SDS011;41061;52.822;6.860;2024-01-06T13:28:01;21.40;;;14.20;;
55172;SDS011;41061;52.822;6.860;2024-01-06T13:30:27;25.27;;;16.30;;
55172;SDS011;41061;52.822;6.860;2024-01-06T13:32:53;22.85;;;15.27;;
55172;SDS011;41061;52.822;6.860;2024-01-06T13:35:22;24.27;;;15.98;;
55172;SDS011;41061;52.822;6.860;2024-01-06T13:37:51;24.35;;;15.27;;
55172;SDS011;41061;52.822;6.860;2024-01-06T13:40:23;23.98;;;15.73;;
55172;SDS011;41061;52.822;6.860;2024-01-06T13:42:50;23.25;;;15.20;;
55172;SDS011;41061;52.822;6.860;2024-01-06T13:45:16;23.50;;;15.60;;
55172;SDS011;41061;52.822;6.860;2024-01-06T13:47:42;24.00;;;15.63;;
55172;SDS011;41061;52.822;6.860;2024-01-06T13:50:13;26.15;;;15.27;;
55172;SDS011;41061;52.822;6.860;2024-01-06T13:52:42;27.42;;;16.15;;
55172;SDS011;41061;52.822;6.860;2024-01-06T13:55:11;23.63;;;15.70;;
55172;SDS011;41061;52.822;6.860;2024-01-06T13:57:37;26.50;;;16.25;;
55172;SDS011;41061;52.822;6.860;2024-01-06T14:00:09;27.02;;;17.15;;
55172;SDS011;41061;52.822;6.860;2024-01-06T14:02:36;27.27;;;17.77;;
55172;SDS011;41061;52.822;6.860;2024-01-06T14:05:06;24.92;;;17.35;;
55172;SDS011;41061;52.822;6.860;2024-01-06T14:07:33;27.98;;;16.70;;
55172;SDS011;41061;52.822;6.860;2024-01-06T14:10:00;23.95;;;16.25;;
55172;SDS011;41061;52.822;6.860;2024-01-06T14:12:28;26.65;;;16.77;;
55172;SDS011;41061;52.822;6.860;2024-01-06T14:14:54;26.80;;;17.52;;
55172;SDS011;41061;52.822;6.860;2024-01-06T14:17:19;27.23;;;17.83;;
55172;SDS011;41061;52.822;6.860;2024-01-06T14:19:45;28.70;;;17.58;;
55172;SDS011;41061;52.822;6.860;2024-01-06T14:22:11;25.58;;;16.75;;
55172;SDS011;41061;52.822;6.860;2024-01-06T14:24:36;27.98;;;18.00;;